createdAt,value
2018-01-17T00:01:11.273Z,23.90
2018-01-17T00:03:38.787Z,23.90
2018-01-17T00:06:06.273Z,24.00
2018-01-17T00:08:35.834Z,24.00
2018-01-17T00:11:03.289Z,24.00
2018-01-17T00:13:30.800Z,24.00
2018-01-17T00:16:00.014Z,24.00
2018-01-17T00:18:28.284Z,23.90
2018-01-17T00:20:55.804Z,24.00
2018-01-17T00:23:23.297Z,24.00
2018-01-17T00:25:50.818Z,24.00
2018-01-17T00:28:18.326Z,24.00
2018-01-17T00:30:46.613Z,24.00
2018-01-17T00:33:14.872Z,24.00
2018-01-17T00:35:42.381Z,24.00
2018-01-17T00:38:09.864Z,24.00
2018-01-17T00:40:37.356Z,24.00
2018-01-17T00:43:05.637Z,24.00
2018-01-17T00:45:35.440Z,24.00
2018-01-17T00:48:03.716Z,24.00
2018-01-17T00:50:31.973Z,24.00
2018-01-17T00:52:59.484Z,24.00
2018-01-17T00:55:26.972Z,24.00
2018-01-17T00:57:54.497Z,24.00
2018-01-17T01:00:21.988Z,24.00
2018-01-17T01:02:49.480Z,24.10
2018-01-17T01:05:17.756Z,24.10
2018-01-17T01:07:45.241Z,24.10
2018-01-17T01:10:12.752Z,24.00
2018-01-17T01:12:41.021Z,24.10
2018-01-17T01:15:10.269Z,24.10
2018-01-17T01:17:37.761Z,24.10
2018-01-17T01:20:05.264Z,24.10
2018-01-17T01:22:32.748Z,24.10
2018-01-17T01:25:00.256Z,24.10
2018-01-17T01:27:28.521Z,24.10
2018-01-17T01:29:56.036Z,24.10
2018-01-17T01:32:25.525Z,24.10
2018-01-17T01:34:53.016Z,24.10
2018-01-17T01:37:20.535Z,24.10
2018-01-17T01:39:48.033Z,24.10
2018-01-17T01:42:15.549Z,24.10
2018-01-17T01:44:43.044Z,24.10
2018-01-17T01:47:12.508Z,24.10
2018-01-17T01:49:39.996Z,24.10
2018-01-17T01:52:08.436Z,24.10
2018-01-17T01:54:35.958Z,24.10
2018-01-17T01:57:03.448Z,24.10
2018-01-17T01:59:30.956Z,24.10
2018-01-17T02:01:58.446Z,24.10
2018-01-17T02:04:26.724Z,24.10
2018-01-17T02:06:54.980Z,24.10
2018-01-17T02:09:24.444Z,24.10
2018-01-17T02:11:51.945Z,24.10
2018-01-17T02:14:20.210Z,24.10
2018-01-17T02:16:47.720Z,24.10
2018-01-17T02:19:15.209Z,24.10
2018-01-17T02:21:46.210Z,24.10
2018-01-17T02:24:13.696Z,24.10
2018-01-17T02:26:41.210Z,24.10
2018-01-17T02:29:08.709Z,24.10
2018-01-17T02:31:38.177Z,24.10
2018-01-17T02:34:05.680Z,24.10
2018-01-17T02:36:36.664Z,24.00
2018-01-17T02:39:04.157Z,24.00
2018-01-17T02:41:31.725Z,24.10
2018-01-17T02:43:59.241Z,24.00
2018-01-17T02:46:26.735Z,24.10
2018-01-17T02:48:55.194Z,24.00
2018-01-17T02:51:22.686Z,24.00
2018-01-17T02:53:50.206Z,24.00
2018-01-17T02:56:17.698Z,24.00
2018-01-17T02:58:45.196Z,24.00
2018-01-17T03:01:12.708Z,24.00
2018-01-17T03:03:40.976Z,24.10
2018-01-17T03:06:08.489Z,24.00
2018-01-17T03:08:35.977Z,24.00
2018-01-17T03:11:05.448Z,24.00
2018-01-17T03:13:32.936Z,24.00
2018-01-17T03:16:00.424Z,24.10
2018-01-17T03:18:27.942Z,24.10
2018-01-17T03:20:55.432Z,24.00
2018-01-17T03:23:24.448Z,24.00
2018-01-17T03:25:52.700Z,24.00
2018-01-17T03:28:21.913Z,24.10
2018-01-17T03:30:50.165Z,24.00
2018-01-17T03:33:17.677Z,24.00
2018-01-17T03:35:45.172Z,24.00
2018-01-17T03:38:13.556Z,24.00
2018-01-17T03:40:41.068Z,24.00
2018-01-17T03:43:08.554Z,24.00
2018-01-17T03:45:36.068Z,24.00
2018-01-17T03:48:03.556Z,24.00
2018-01-17T03:50:33.032Z,24.00
2018-01-17T03:53:00.520Z,24.00
2018-01-17T03:55:28.033Z,24.00
2018-01-17T03:57:56.292Z,24.00
2018-01-17T04:00:23.781Z,24.00
2018-01-17T04:02:51.292Z,24.00
2018-01-17T04:05:18.780Z,24.00
2018-01-17T04:07:49.013Z,24.00
2018-01-17T04:10:16.501Z,24.00
2018-01-17T04:12:44.017Z,24.00
2018-01-17T04:15:13.267Z,24.00
2018-01-17T04:17:40.765Z,24.00
2018-01-17T04:20:09.040Z,24.00
2018-01-17T04:22:37.296Z,24.00
2018-01-17T04:25:04.804Z,24.00
2018-01-17T04:27:32.292Z,24.00
2018-01-17T04:29:59.776Z,24.00
2018-01-17T04:32:28.053Z,24.00
2018-01-17T04:34:56.323Z,24.00
2018-01-17T04:37:23.832Z,24.00
2018-01-17T04:39:51.316Z,24.00
2018-01-17T04:42:18.836Z,24.00
2018-01-17T04:44:46.336Z,24.00
2018-01-17T04:47:13.848Z,24.00
2018-01-17T04:49:41.339Z,24.00
2018-01-17T04:52:08.854Z,24.00
2018-01-17T04:54:37.352Z,24.00
2018-01-17T04:57:04.864Z,24.00
2018-01-17T04:59:33.116Z,24.00
2018-01-17T05:02:01.372Z,24.00
2018-01-17T05:04:28.884Z,24.00
2018-01-17T05:06:57.136Z,24.00
2018-01-17T05:09:26.594Z,24.00
2018-01-17T05:11:54.085Z,24.00
2018-01-17T05:14:23.552Z,24.00
2018-01-17T05:16:51.044Z,24.00
2018-01-17T05:19:18.528Z,24.00
2018-01-17T05:21:48.757Z,24.00
2018-01-17T05:24:16.268Z,23.90
2018-01-17T05:26:43.781Z,24.00
2018-01-17T05:29:11.273Z,24.00
2018-01-17T05:31:38.788Z,24.00
2018-01-17T05:34:06.281Z,24.00
2018-01-17T05:36:33.794Z,24.00
2018-01-17T05:39:02.053Z,24.00
2018-01-17T05:41:30.332Z,24.00
2018-01-17T05:43:58.584Z,24.00
2018-01-17T05:46:26.844Z,24.00
2018-01-17T05:48:54.356Z,24.00
2018-01-17T05:51:21.845Z,24.00
2018-01-17T05:53:50.320Z,23.90
2018-01-17T05:56:17.810Z,23.90
2018-01-17T05:58:45.333Z,23.90
2018-01-17T06:01:12.821Z,23.90
2018-01-17T06:03:41.832Z,23.90
2018-01-17T06:06:10.124Z,23.90
2018-01-17T06:08:38.381Z,23.90
2018-01-17T06:11:05.889Z,23.90
2018-01-17T06:13:33.380Z,23.90
2018-01-17T06:16:03.633Z,23.90
2018-01-17T06:18:31.884Z,23.90
2018-01-17T06:21:00.168Z,23.90
2018-01-17T06:23:28.420Z,23.90
2018-01-17T06:25:57.432Z,23.90
2018-01-17T06:28:25.688Z,23.90
2018-01-17T06:30:53.182Z,23.80
2018-01-17T06:33:20.701Z,23.80
2018-01-17T06:35:50.736Z,23.80
2018-01-17T06:38:20.197Z,23.80
2018-01-17T06:40:47.689Z,23.80
2018-01-17T06:43:15.195Z,23.80
2018-01-17T06:45:42.747Z,23.80
2018-01-17T06:48:10.244Z,23.80
2018-01-17T06:50:38.196Z,23.80
2018-01-17T06:53:06.959Z,23.80
2018-01-17T06:55:34.760Z,23.80
2018-01-17T06:58:02.587Z,23.80
2018-01-17T07:00:31.475Z,23.80
2018-01-17T07:03:00.196Z,23.80
2018-01-17T07:05:28.793Z,23.80
2018-01-17T07:07:57.472Z,23.80
2018-01-17T07:10:25.180Z,23.80
2018-01-17T07:12:53.706Z,23.80
2018-01-17T07:15:22.214Z,23.80
2018-01-17T07:17:50.734Z,23.80
2018-01-17T07:20:19.521Z,23.80
2018-01-17T07:22:47.264Z,23.80
2018-01-17T07:25:15.046Z,23.80
2018-01-17T07:27:43.012Z,23.80
2018-01-17T07:30:10.580Z,23.80
2018-01-17T07:32:38.093Z,23.80
2018-01-17T07:35:06.384Z,23.80
2018-01-17T07:37:33.884Z,23.80
2018-01-17T07:40:01.409Z,23.80
2018-01-17T07:42:28.913Z,23.80
2018-01-17T07:44:56.439Z,23.80
2018-01-17T07:47:23.932Z,23.80
2018-01-17T07:49:51.468Z,23.80
2018-01-17T07:52:18.993Z,23.80
2018-01-17T07:54:46.493Z,23.80
2018-01-17T07:57:14.008Z,23.80
2018-01-17T07:59:42.453Z,23.80
2018-01-17T08:02:09.968Z,23.80
2018-01-17T08:04:37.467Z,23.70
2018-01-17T08:07:04.964Z,23.70
2018-01-17T08:09:32.480Z,23.70
2018-01-17T08:11:59.980Z,23.70
2018-01-17T08:14:27.556Z,23.70
2018-01-17T08:16:55.072Z,23.70
2018-01-17T08:19:23.356Z,23.70
2018-01-17T08:21:50.853Z,23.70
2018-01-17T08:24:18.348Z,23.70
2018-01-17T08:26:46.633Z,23.70
2018-01-17T08:29:14.892Z,23.70
2018-01-17T08:31:42.405Z,23.70
2018-01-17T08:34:09.900Z,23.70
2018-01-17T08:36:37.416Z,23.70
2018-01-17T08:39:04.908Z,23.70
2018-01-17T08:41:33.938Z,23.60
2018-01-17T08:44:01.434Z,23.60
2018-01-17T08:46:28.929Z,23.70
2018-01-17T08:48:57.360Z,23.70
2018-01-17T08:51:24.853Z,23.60
2018-01-17T08:53:52.385Z,23.60
2018-01-17T08:56:19.884Z,23.60
2018-01-17T08:58:48.187Z,23.60
2018-01-17T09:01:15.681Z,23.60
2018-01-17T09:03:45.140Z,23.60
2018-01-17T09:06:12.633Z,23.60
2018-01-17T09:08:40.144Z,23.60
2018-01-17T09:11:08.404Z,23.60
2018-01-17T09:13:36.667Z,23.60
2018-01-17T09:16:04.180Z,23.60
2018-01-17T09:18:31.672Z,23.60
2018-01-17T09:20:59.181Z,23.60
2018-01-17T09:23:26.673Z,23.60
2018-01-17T09:25:54.188Z,23.60
2018-01-17T09:28:21.688Z,23.60
2018-01-17T09:30:51.152Z,23.60
2018-01-17T09:33:18.653Z,23.60
2018-01-17T09:35:46.144Z,23.60
2018-01-17T09:38:14.422Z,23.60
2018-01-17T09:40:42.685Z,23.60
2018-01-17T09:43:10.988Z,23.60
2018-01-17T09:45:38.488Z,23.60
2018-01-17T09:48:07.944Z,23.60
2018-01-17T09:50:35.432Z,23.50
2018-01-17T09:53:02.946Z,23.50
2018-01-17T09:55:31.200Z,23.50
2018-01-17T09:57:58.692Z,23.50
2018-01-17T10:00:26.217Z,23.50
2018-01-17T10:02:53.725Z,23.50
2018-01-17T10:05:21.240Z,23.50
2018-01-17T10:07:49.492Z,23.50
2018-01-17T10:10:17.772Z,23.50
2018-01-17T10:12:45.260Z,23.40
2018-01-17T10:15:14.797Z,23.50
2018-01-17T10:17:42.288Z,23.50
2018-01-17T10:20:11.297Z,23.50
2018-01-17T10:22:40.508Z,23.50
2018-01-17T10:25:10.749Z,23.50
2018-01-17T10:27:38.236Z,23.40
2018-01-17T10:30:05.734Z,23.50
2018-01-17T10:32:34.021Z,23.50
2018-01-17T10:35:01.508Z,23.40
2018-01-17T10:37:29.016Z,23.50
2018-01-17T10:39:57.272Z,23.40
2018-01-17T10:42:26.288Z,23.40
2018-01-17T10:44:54.541Z,23.40
2018-01-17T10:47:24.004Z,23.40
2018-01-17T10:49:51.488Z,23.40
2018-01-17T10:52:18.982Z,23.40
2018-01-17T10:54:49.204Z,23.40
2018-01-17T10:57:17.470Z,23.40
2018-01-17T10:59:45.770Z,23.40
2018-01-17T11:02:13.288Z,23.40
2018-01-17T11:04:40.801Z,23.40
2018-01-17T11:07:08.301Z,23.40
2018-01-17T11:09:35.816Z,23.40
2018-01-17T11:12:03.309Z,23.40
2018-01-17T11:14:32.326Z,23.40
2018-01-17T11:17:00.654Z,23.40
2018-01-17T11:19:28.170Z,23.40
2018-01-17T11:21:55.660Z,23.40
2018-01-17T11:24:23.147Z,23.40
2018-01-17T11:26:50.665Z,23.40
2018-01-17T11:29:18.170Z,23.40
2018-01-17T11:31:45.692Z,23.40
2018-01-17T11:34:13.180Z,23.30
2018-01-17T11:36:42.198Z,23.40
2018-01-17T11:39:10.461Z,23.30
2018-01-17T11:41:40.676Z,23.30
2018-01-17T11:44:08.170Z,23.30
2018-01-17T11:46:35.681Z,23.30
2018-01-17T11:49:03.182Z,23.30
2018-01-17T11:51:30.700Z,23.30
2018-01-17T11:53:58.189Z,23.30
2018-01-17T11:56:25.689Z,23.30
2018-01-17T11:58:53.193Z,23.30
2018-01-17T12:01:21.453Z,23.30
2018-01-17T12:03:49.728Z,23.30
2018-01-17T12:06:17.989Z,23.30
2018-01-17T12:08:47.452Z,23.30
2018-01-17T12:11:14.942Z,23.30
2018-01-17T12:13:42.428Z,23.30
2018-01-17T12:16:10.721Z,23.30
2018-01-17T12:18:38.232Z,23.30
2018-01-17T12:21:06.520Z,23.30
2018-01-17T12:23:34.013Z,23.30
2018-01-17T12:26:01.520Z,23.30
2018-01-17T12:28:29.954Z,23.30
2018-01-17T12:30:57.469Z,23.30
2018-01-17T12:33:24.957Z,23.30
2018-01-17T12:35:53.381Z,23.30
2018-01-17T12:38:20.897Z,23.30
2018-01-17T12:40:48.393Z,23.30
2018-01-17T12:43:15.932Z,23.30
2018-01-17T12:45:43.416Z,23.30
2018-01-17T12:48:11.717Z,23.30
2018-01-17T12:50:39.969Z,23.30
2018-01-17T12:53:07.456Z,23.20
2018-01-17T12:55:35.732Z,23.30
2018-01-17T12:58:03.984Z,23.20
2018-01-17T13:00:31.493Z,23.30
2018-01-17T13:02:59.936Z,23.20
2018-01-17T13:05:28.227Z,23.20
2018-01-17T13:07:55.718Z,23.20
2018-01-17T13:10:23.229Z,23.20
2018-01-17T13:12:51.484Z,23.20
2018-01-17T13:15:18.997Z,23.20
2018-01-17T13:17:46.484Z,23.20
2018-01-17T13:20:14.760Z,23.20
2018-01-17T13:22:43.015Z,23.20
2018-01-17T13:25:12.505Z,23.20
2018-01-17T13:27:39.992Z,23.20
2018-01-17T13:30:09.233Z,23.20
2018-01-17T13:32:36.746Z,23.20
2018-01-17T13:35:05.001Z,23.20
2018-01-17T13:37:32.512Z,23.20
2018-01-17T13:40:01.717Z,23.20
2018-01-17T13:42:29.232Z,23.10
2018-01-17T13:44:56.716Z,23.20
2018-01-17T13:47:25.008Z,23.20
2018-01-17T13:49:52.509Z,23.10
2018-01-17T13:52:19.997Z,23.10
2018-01-17T13:54:49.461Z,23.10
2018-01-17T13:57:16.948Z,23.10
2018-01-17T13:59:44.460Z,23.10
2018-01-17T14:02:11.952Z,23.10
2018-01-17T14:04:41.405Z,23.10
2018-01-17T14:07:08.896Z,23.10
2018-01-17T14:09:36.384Z,23.10
2018-01-17T14:12:03.922Z,23.10
2018-01-17T14:14:31.405Z,23.10
2018-01-17T14:16:59.683Z,23.10
2018-01-17T14:19:27.936Z,23.10
2018-01-17T14:21:56.212Z,23.10
2018-01-17T14:24:26.177Z,23.10
2018-01-17T14:26:53.660Z,23.10
2018-01-17T14:29:21.177Z,23.10
2018-01-17T14:31:49.732Z,23.10
2018-01-17T14:34:17.241Z,23.10
2018-01-17T14:36:44.769Z,23.10
2018-01-17T14:39:13.028Z,23.10
2018-01-17T14:41:41.292Z,23.10
2018-01-17T14:44:08.781Z,23.10
2018-01-17T14:46:37.061Z,23.00
2018-01-17T14:49:05.509Z,23.10
2018-01-17T14:51:33.785Z,23.00
2018-01-17T14:54:03.020Z,23.00
2018-01-17T14:56:30.542Z,23.00
2018-01-17T14:58:58.797Z,23.00
2018-01-17T15:01:27.069Z,23.00
2018-01-17T15:03:55.328Z,23.00
2018-01-17T15:06:22.816Z,23.00
2018-01-17T15:08:50.324Z,23.00
2018-01-17T15:11:17.812Z,23.00
2018-01-17T15:13:48.817Z,23.00
2018-01-17T15:16:16.305Z,23.00
2018-01-17T15:18:47.270Z,23.00
2018-01-17T15:21:15.521Z,23.00
2018-01-17T15:23:43.785Z,23.00
2018-01-17T15:26:11.305Z,23.00
2018-01-17T15:28:38.797Z,23.00
2018-01-17T15:31:06.318Z,23.00
2018-01-17T15:33:33.816Z,23.00
2018-01-17T15:36:01.333Z,23.00
2018-01-17T15:38:28.821Z,22.90
2018-01-17T15:40:56.308Z,23.00
2018-01-17T15:43:23.821Z,23.00
2018-01-17T15:45:51.319Z,22.90
2018-01-17T15:48:18.837Z,22.90
2018-01-17T15:50:46.325Z,22.90
2018-01-17T15:53:14.609Z,22.90
2018-01-17T15:55:42.099Z,22.90
2018-01-17T15:58:09.584Z,22.90
2018-01-17T16:00:37.094Z,22.90
2018-01-17T16:03:06.301Z,22.90
2018-01-17T16:05:33.814Z,22.90
2018-01-17T16:08:01.305Z,22.90
2018-01-17T16:10:29.583Z,22.90
2018-01-17T16:12:57.840Z,22.90
2018-01-17T16:15:26.109Z,22.90
2018-01-17T16:17:53.653Z,22.90
2018-01-17T16:20:22.721Z,22.90
2018-01-17T16:22:50.212Z,22.90
2018-01-17T16:25:17.701Z,22.90
2018-01-17T16:27:45.990Z,22.90
2018-01-17T16:30:13.480Z,22.80
2018-01-17T16:32:41.000Z,22.90
2018-01-17T16:35:08.499Z,22.90
2018-01-17T16:37:36.952Z,22.80
2018-01-17T16:40:04.465Z,22.80
2018-01-17T16:42:32.725Z,22.80
2018-01-17T16:45:01.766Z,22.80
2018-01-17T16:47:29.261Z,22.80
2018-01-17T16:49:56.781Z,22.80
2018-01-17T16:52:25.217Z,22.80
2018-01-17T16:54:53.036Z,22.80
2018-01-17T16:57:20.524Z,22.80
2018-01-17T16:59:48.010Z,22.80
2018-01-17T17:02:16.306Z,22.80
2018-01-17T17:04:43.845Z,22.80
2018-01-17T17:07:13.065Z,22.80
2018-01-17T17:09:41.536Z,22.80
2018-01-17T17:12:09.053Z,22.80
2018-01-17T17:14:36.544Z,22.80
2018-01-17T17:17:04.829Z,22.80
2018-01-17T17:19:32.348Z,22.70
2018-01-17T17:21:59.877Z,22.80
2018-01-17T17:24:27.376Z,22.70
2018-01-17T17:26:55.657Z,22.70
2018-01-17T17:29:23.961Z,22.70
2018-01-17T17:31:51.470Z,22.70
2018-01-17T17:34:18.992Z,22.70
2018-01-17T17:36:46.493Z,22.70
2018-01-17T17:39:14.790Z,22.60
2018-01-17T17:41:42.289Z,22.60
2018-01-17T17:44:09.803Z,22.70
2018-01-17T17:46:37.296Z,22.70
2018-01-17T17:49:04.813Z,22.70
2018-01-17T17:51:33.074Z,22.70
2018-01-17T17:54:01.330Z,22.70
2018-01-17T17:56:28.853Z,22.70
2018-01-17T17:58:56.341Z,22.70
2018-01-17T18:01:24.770Z,22.70
2018-01-17T18:03:52.260Z,22.70
2018-01-17T18:06:21.735Z,22.60
2018-01-17T18:08:49.257Z,22.70
2018-01-17T18:11:17.534Z,22.70
2018-01-17T18:13:45.800Z,22.60
2018-01-17T18:16:13.289Z,22.60
2018-01-17T18:18:40.830Z,22.70
2018-01-17T18:21:09.088Z,22.70
2018-01-17T18:23:36.597Z,22.60
2018-01-17T18:26:04.093Z,22.70
2018-01-17T18:28:31.632Z,22.60
2018-01-17T18:30:59.132Z,22.70
2018-01-17T18:33:27.413Z,22.60
2018-01-17T18:35:55.672Z,22.70
2018-01-17T18:38:23.929Z,22.70
2018-01-17T18:40:51.448Z,22.60
2018-01-17T18:43:18.945Z,22.70
2018-01-17T18:45:47.232Z,22.70
2018-01-17T18:48:15.492Z,22.70
2018-01-17T18:50:43.005Z,22.70
2018-01-17T18:53:10.499Z,22.60
2018-01-17T18:55:39.971Z,22.70
2018-01-17T18:58:07.465Z,22.60
2018-01-17T19:00:36.696Z,22.60
2018-01-17T19:03:04.217Z,22.60
2018-01-17T19:05:31.721Z,22.60
2018-01-17T19:07:59.230Z,22.60
2018-01-17T19:10:26.730Z,22.60
2018-01-17T19:12:54.247Z,22.60
2018-01-17T19:15:21.747Z,22.60
2018-01-17T19:17:51.267Z,22.60
2018-01-17T19:20:18.761Z,22.60
2018-01-17T19:22:48.703Z,22.60
2018-01-17T19:25:16.983Z,22.60
2018-01-17T19:27:45.265Z,22.60
2018-01-17T19:30:13.545Z,22.60
2018-01-17T19:32:41.037Z,22.50
2018-01-17T19:35:08.548Z,22.60
2018-01-17T19:37:36.800Z,22.60
2018-01-17T19:40:07.028Z,22.60
2018-01-17T19:42:34.529Z,22.60
2018-01-17T19:45:02.045Z,22.60
2018-01-17T19:47:30.331Z,22.70
2018-01-17T19:49:58.708Z,22.60
2018-01-17T19:52:27.004Z,22.80
2018-01-17T19:54:54.670Z,22.80
2018-01-17T19:57:22.537Z,22.90
2018-01-17T19:59:50.330Z,22.90
2018-01-17T20:02:19.088Z,22.90
2018-01-17T20:04:46.848Z,22.90
2018-01-17T20:07:14.615Z,22.90
2018-01-17T20:09:43.510Z,22.90
2018-01-17T20:12:13.108Z,22.80
2018-01-17T20:14:41.998Z,22.80
2018-01-17T20:17:09.759Z,22.80
2018-01-17T20:19:37.565Z,22.90
2018-01-17T20:22:07.746Z,22.80
2018-01-17T20:24:36.647Z,22.80
2018-01-17T20:27:05.420Z,22.80
2018-01-17T20:29:33.226Z,22.80
2018-01-17T20:32:01.062Z,22.80
2018-01-17T20:34:28.810Z,22.80
2018-01-17T20:36:56.573Z,22.80
2018-01-17T20:39:29.866Z,22.80
2018-01-17T20:41:57.663Z,22.80
2018-01-17T20:44:25.338Z,22.80
2018-01-17T20:46:53.770Z,22.80
2018-01-17T20:49:21.634Z,22.80
2018-01-17T20:51:49.501Z,22.80
2018-01-17T20:54:17.365Z,22.80
2018-01-17T20:56:44.888Z,22.80
2018-01-17T20:59:13.168Z,22.80
2018-01-17T21:01:41.428Z,22.80
2018-01-17T21:04:08.969Z,22.80
2018-01-17T21:06:36.487Z,22.80
2018-01-17T21:09:03.979Z,22.70
2018-01-17T21:11:31.523Z,22.70
2018-01-17T21:14:01.009Z,22.70
2018-01-17T21:16:28.504Z,22.70
2018-01-17T21:18:55.993Z,22.70
2018-01-17T21:21:24.281Z,22.70
2018-01-17T21:23:51.796Z,22.70
2018-01-17T21:26:21.733Z,22.60
2018-01-17T21:28:50.021Z,22.70
2018-01-17T21:31:17.520Z,22.60
2018-01-17T21:33:45.036Z,22.70
2018-01-17T21:36:12.540Z,22.70
2018-01-17T21:38:40.053Z,22.60
2018-01-17T21:41:07.548Z,22.70
2018-01-17T21:43:40.754Z,22.70
2018-01-17T21:46:08.248Z,22.70
2018-01-17T21:48:36.533Z,22.70
2018-01-17T21:51:04.025Z,22.70
2018-01-17T21:53:31.512Z,22.70
2018-01-17T21:55:59.124Z,22.70
2018-01-17T21:58:26.641Z,22.70
2018-01-17T22:00:54.950Z,22.70
2018-01-17T22:03:22.464Z,22.70
2018-01-17T22:05:49.975Z,22.70
2018-01-17T22:08:17.492Z,22.80
2018-01-17T22:10:45.749Z,22.80
2018-01-17T22:13:13.277Z,22.70
2018-01-17T22:15:40.811Z,22.80
2018-01-17T22:18:08.328Z,22.80
2018-01-17T22:20:35.816Z,22.80
2018-01-17T22:23:03.323Z,22.80
2018-01-17T22:25:30.834Z,22.80
2018-01-17T22:27:58.348Z,22.80
2018-01-17T22:30:26.879Z,22.90
2018-01-17T22:32:54.743Z,22.80
2018-01-17T22:35:22.711Z,22.90
2018-01-17T22:37:50.277Z,22.90
2018-01-17T22:40:17.789Z,22.90
2018-01-17T22:42:46.048Z,22.90
2018-01-17T22:45:15.148Z,23.00
2018-01-17T22:47:42.657Z,22.90
2018-01-17T22:50:10.294Z,23.00
2018-01-17T22:52:37.873Z,23.00
2018-01-17T22:55:05.420Z,23.00
2018-01-17T22:57:33.060Z,23.00
2018-01-17T23:00:01.501Z,23.10
2018-01-17T23:02:29.229Z,23.10
2018-01-17T23:04:56.762Z,23.10
2018-01-17T23:07:24.346Z,23.10
2018-01-17T23:09:51.864Z,23.10
2018-01-17T23:12:19.354Z,23.10
2018-01-17T23:14:46.869Z,23.10
2018-01-17T23:17:15.113Z,23.20
2018-01-17T23:19:42.624Z,23.20
2018-01-17T23:22:11.150Z,23.20
2018-01-17T23:24:38.865Z,23.20
2018-01-17T23:27:08.272Z,23.20
2018-01-17T23:29:35.953Z,23.20
2018-01-17T23:32:03.621Z,23.20
2018-01-17T23:34:31.253Z,23.30
2018-01-17T23:36:59.604Z,23.30
2018-01-17T23:39:28.030Z,23.30
2018-01-17T23:41:55.537Z,23.30
2018-01-17T23:44:23.836Z,23.30
2018-01-17T23:46:52.119Z,23.30
2018-01-17T23:49:20.412Z,23.30
2018-01-17T23:51:48.072Z,23.40
2018-01-17T23:54:17.232Z,23.40
2018-01-17T23:56:45.647Z,23.40
2018-01-17T23:59:14.538Z,23.40
